Time;durP1;ratioP1;P1;durP2;ratioP2;P2;SDS_P1;SDS_P2;PMS_P1;PMS_P2;Temp;Humidity;BMP_temperature;BMP_pressure;BME280_temperature;BME280_humidity;BME280_pressure;Samples;Min_cycle;Max_cycle;Signal;HPM_P1;HPM_P2
2021/04/29 00:01:02;;;;;;;41.85;20.85;;;;;;;4.45;53.86;97993.16;2225018;80;21167;-81
2021/04/29 00:04:04;;;;;;;39.03;19.87;;;;;;;4.47;54.27;97997.69;2224757;80;21744;-82
2021/04/29 00:07:06;;;;;;;40.00;19.15;;;;;;;4.48;54.59;97990.72;2224096;80;21174;-80
2021/04/29 00:10:08;;;;;;;31.87;17.87;;;;;;;4.48;54.91;97991.56;2223958;80;21258;-83
2021/04/29 00:13:09;;;;;;;33.53;20.05;;;;;;;4.50;55.01;97992.21;2224074;80;21111;-81
2021/04/29 00:16:11;;;;;;;31.07;17.73;;;;;;;4.50;55.22;97988.32;2224394;80;21297;-81
2021/04/29 00:19:13;;;;;;;38.35;20.77;;;;;;;4.50;55.88;97990.91;2223957;80;21178;-82
2021/04/29 00:22:15;;;;;;;27.15;18.07;;;;;;;4.49;56.12;97998.85;2224012;80;21634;-82
2021/04/29 00:25:17;;;;;;;28.30;17.62;;;;;;;4.48;56.49;97986.84;2224125;80;21159;-82
2021/04/29 00:28:19;;;;;;;23.35;16.75;;;;;;;4.46;56.65;97992.18;2223796;80;21171;-82
2021/04/29 00:31:21;;;;;;;23.85;16.90;;;;;;;4.46;57.26;97983.11;2224174;80;21180;-83
2021/04/29 00:34:23;;;;;;;25.12;16.42;;;;;;;4.45;57.18;97989.27;2225402;80;21273;-79
2021/04/29 00:37:25;;;;;;;26.42;17.52;;;;;;;4.45;57.48;97991.86;2225458;80;21142;-81
2021/04/29 00:40:27;;;;;;;24.40;17.30;;;;;;;4.44;57.79;97986.35;2224193;80;21155;-82
2021/04/29 00:43:29;;;;;;;25.05;16.17;;;;;;;4.44;57.99;97994.61;2224145;80;21223;-81
2021/04/29 00:46:30;;;;;;;25.85;16.80;;;;;;;4.43;58.41;97995.59;2221211;80;21769;-82
2021/04/29 00:49:33;;;;;;;23.87;15.38;;;;;;;4.41;58.19;97990.56;2220325;80;21179;-81
2021/04/29 00:52:35;;;;;;;24.82;15.35;;;;;;;4.38;58.19;97996.53;2220179;80;21322;-82
2021/04/29 00:55:36;;;;;;;27.55;17.35;;;;;;;4.36;58.72;97995.88;2219982;80;21159;-82
2021/04/29 00:58:39;;;;;;;26.20;16.85;;;;;;;4.35;58.43;97997.66;2220375;80;21305;-81
2021/04/29 01:01:40;;;;;;;25.77;16.77;;;;;;;4.33;58.58;97998.80;2220339;80;21140;-82
2021/04/29 01:04:44;;;;;;;22.87;15.78;;;;;;;4.30;58.79;98001.23;2220276;80;21186;-80
2021/04/29 01:07:46;;;;;;;23.62;16.07;;;;;;;4.28;58.90;97995.37;2219808;80;21257;-82
2021/04/29 01:10:47;;;;;;;33.80;17.62;;;;;;;4.23;59.30;98004.11;2219621;80;21706;-81
2021/04/29 01:13:49;;;;;;;28.47;16.82;;;;;;;4.21;59.79;98002.17;2219798;80;21132;-83
2021/04/29 01:16:51;;;;;;;25.27;17.00;;;;;;;4.17;59.44;97996.95;2219845;80;21710;-81
2021/04/29 01:19:53;;;;;;;24.72;16.15;;;;;;;4.13;59.72;98005.53;2219968;80;21147;-82
2021/04/29 01:22:56;;;;;;;27.60;17.35;;;;;;;4.11;60.07;97998.86;2219815;80;21261;-82
2021/04/29 01:25:57;;;;;;;24.35;16.37;;;;;;;4.08;59.93;98000.48;2219936;80;21269;-82
2021/04/29 01:28:59;;;;;;;30.75;17.75;;;;;;;4.04;60.07;98007.77;2219886;80;21321;-83
2021/04/29 01:32:00;;;;;;;22.95;15.90;;;;;;;4.00;59.96;98002.06;2220176;80;21167;-81
2021/04/29 01:35:02;;;;;;;26.27;16.67;;;;;;;3.96;60.27;98003.34;2220108;80;21587;-81
2021/04/29 01:38:04;;;;;;;29.37;16.40;;;;;;;3.94;60.46;98007.07;2220251;80;21269;-83
2021/04/29 01:41:05;;;;;;;31.52;18.30;;;;;;;3.92;60.60;97999.43;2220085;80;21293;-82
2021/04/29 01:44:07;;;;;;;29.63;18.23;;;;;;;3.88;60.69;98005.09;2220193;80;21299;-81
2021/04/29 01:47:09;;;;;;;31.07;19.92;;;;;;;3.85;60.92;98002.33;2220235;80;21190;-82
2021/04/29 01:50:11;;;;;;;26.45;18.87;;;;;;;3.85;61.04;98006.70;2220385;80;21313;-81
2021/04/29 01:53:13;;;;;;;27.75;19.17;;;;;;;3.81;61.28;97995.81;2220048;80;21333;-80
2021/04/29 01:56:15;;;;;;;28.90;17.85;;;;;;;3.80;61.22;97994.68;2220419;80;21273;-82
2021/04/29 01:59:17;;;;;;;31.50;20.45;;;;;;;3.81;61.63;97987.23;2219970;80;21328;-81
2021/04/29 02:02:19;;;;;;;32.13;19.42;;;;;;;3.82;62.15;97984.97;2220255;80;21190;-81
2021/04/29 02:05:21;;;;;;;33.98;22.13;;;;;;;3.84;61.89;97987.77;2220167;80;21143;-80
2021/04/29 02:08:22;;;;;;;35.63;20.40;;;;;;;3.87;62.45;97989.22;2220013;80;21753;-81
2021/04/29 02:11:24;;;;;;;31.52;20.72;;;;;;;3.84;62.57;97983.88;2219982;80;21820;-81
2021/04/29 02:14:26;;;;;;;26.62;19.42;;;;;;;3.79;62.21;97984.81;2219887;80;21283;-81
2021/04/29 02:17:28;;;;;;;28.85;19.45;;;;;;;3.77;62.24;97983.34;2219975;80;21583;-81
2021/04/29 02:20:29;;;;;;;30.88;19.15;;;;;;;3.75;62.39;97976.19;2219870;80;21265;-81
2021/04/29 02:23:31;;;;;;;33.13;19.95;;;;;;;3.69;62.30;97979.74;2219810;80;21591;-81
2021/04/29 02:26:33;;;;;;;27.50;18.77;;;;;;;3.66;62.58;97980.55;2220080;80;21282;-81
2021/04/29 02:29:34;;;;;;;30.15;20.55;;;;;;;3.60;63.10;97975.97;2220149;80;21594;-81
2021/04/29 02:32:36;;;;;;;29.15;17.15;;;;;;;3.52;63.37;97973.33;2220418;80;21171;-83
2021/04/29 02:35:38;;;;;;;32.75;20.45;;;;;;;3.47;63.89;97974.25;2220107;80;21297;-84
2021/04/29 02:38:39;;;;;;;33.28;18.62;;;;;;;3.45;64.71;97978.30;2220297;80;21312;-83
2021/04/29 02:41:41;;;;;;;31.90;19.45;;;;;;;3.47;64.53;97986.71;2220249;80;21309;-83
2021/04/29 02:44:43;;;;;;;29.98;19.00;;;;;;;3.48;65.10;97986.26;2220296;80;21167;-82
2021/04/29 02:47:45;;;;;;;43.63;23.75;;;;;;;3.50;64.63;97977.85;2223718;80;21148;-83
2021/04/29 02:50:47;;;;;;;37.28;21.57;;;;;;;3.51;64.82;97978.98;2223971;80;21111;-82
2021/04/29 02:53:49;;;;;;;32.67;21.27;;;;;;;3.49;65.11;97980.92;2224154;80;21313;-83
2021/04/29 02:56:50;;;;;;;33.00;20.57;;;;;;;3.45;65.34;97980.88;2224182;80;21163;-82
2021/04/29 02:59:52;;;;;;;39.33;22.93;;;;;;;3.45;65.49;97982.66;2223883;80;21602;-82
2021/04/29 03:02:55;;;;;;;28.85;19.50;;;;;;;3.46;65.78;97981.70;2223830;80;21316;-82
2021/04/29 03:05:57;;;;;;;34.55;21.95;;;;;;;3.50;66.47;97976.56;2223757;80;21187;-82
2021/04/29 03:08:59;;;;;;;33.05;20.88;;;;;;;3.51;65.88;97976.89;2223764;80;21301;-83
2021/04/29 03:12:00;;;;;;;35.70;22.87;;;;;;;3.54;65.88;97984.34;2223871;80;21143;-82
2021/04/29 03:15:02;;;;;;;32.93;21.87;;;;;;;3.58;65.90;97989.07;2223839;80;21619;-81
2021/04/29 03:18:04;;;;;;;35.08;22.73;;;;;;;3.60;66.13;97985.84;2224007;80;21151;-82
2021/04/29 03:21:06;;;;;;;29.25;19.62;;;;;;;3.63;66.32;97989.89;2224090;80;21578;-81
2021/04/29 03:24:08;;;;;;;27.80;19.77;;;;;;;3.66;66.61;97990.90;2223791;80;21135;-81
2021/04/29 03:27:10;;;;;;;27.60;18.82;;;;;;;3.66;67.83;97985.72;2223808;80;21257;-82
2021/04/29 03:30:11;;;;;;;27.77;19.52;;;;;;;3.69;67.10;97985.41;2223757;80;21146;-81
2021/04/29 03:33:13;;;;;;;30.20;20.25;;;;;;;3.74;67.25;97984.45;2223780;80;21147;-81
2021/04/29 03:36:15;;;;;;;32.98;19.35;;;;;;;3.79;67.19;97988.70;2223803;80;21625;-82
2021/04/29 03:39:17;;;;;;;28.12;18.95;;;;;;;3.87;67.27;97990.03;2224987;80;21300;-80
2021/04/29 03:42:19;;;;;;;30.85;19.77;;;;;;;3.98;67.39;97988.95;2225801;80;21642;-81
2021/04/29 03:45:21;;;;;;;30.40;20.80;;;;;;;4.09;67.32;97977.48;2224892;80;21261;-81
2021/04/29 03:48:23;;;;;;;26.15;18.15;;;;;;;4.21;67.28;97974.47;2222242;80;21674;-81
2021/04/29 03:51:25;;;;;;;28.70;20.27;;;;;;;4.34;67.22;97973.20;2220615;80;21594;-83
2021/04/29 03:54:27;;;;;;;24.80;17.70;;;;;;;4.43;67.23;97979.55;2220917;80;21261;-80
2021/04/29 03:57:29;;;;;;;29.50;19.15;;;;;;;4.52;67.02;97970.81;2220510;80;21163;-82
2021/04/29 04:00:32;;;;;;;24.90;17.30;;;;;;;4.62;66.98;97975.86;2220687;80;21269;-82
2021/04/29 04:03:33;;;;;;;24.23;17.30;;;;;;;4.68;66.99;97973.13;2220724;80;21171;-82
2021/04/29 04:06:35;;;;;;;20.82;17.17;;;;;;;4.74;66.96;97971.16;2220585;80;21139;-82
2021/04/29 04:09:37;;;;;;;26.68;19.48;;;;;;;4.81;66.94;97966.48;2220577;80;21170;-82
2021/04/29 04:12:39;;;;;;;32.93;20.08;;;;;;;4.96;67.03;97963.25;2220375;80;21163;-82
2021/04/29 04:15:41;;;;;;;27.75;18.73;;;;;;;5.14;66.68;97967.30;2220715;80;21754;-82
2021/04/29 04:18:44;;;;;;;27.77;20.02;;;;;;;5.40;66.47;97967.13;2220617;80;21571;-83
2021/04/29 04:21:46;;;;;;;28.92;20.57;;;;;;;5.74;66.33;97969.95;2220371;80;21158;-82
2021/04/29 04:24:47;;;;;;;27.05;19.48;;;;;;;6.17;65.75;97966.59;2220620;80;21138;-84
2021/04/29 04:27:49;;;;;;;36.00;22.13;;;;;;;6.70;64.87;97954.10;2220570;80;21579;-84
2021/04/29 04:30:51;;;;;;;34.15;22.00;;;;;;;7.24;63.98;97960.52;2220501;80;21543;-84
2021/04/29 04:33:53;;;;;;;29.98;19.52;;;;;;;7.91;63.61;97962.27;2220360;80;21155;-83
2021/04/29 04:36:54;;;;;;;26.30;17.48;;;;;;;8.53;62.68;97958.73;2220627;80;21178;-83
2021/04/29 04:39:56;;;;;;;26.50;18.05;;;;;;;9.17;61.12;97960.55;2220414;80;21622;-82
2021/04/29 04:42:58;;;;;;;31.00;17.57;;;;;;;9.56;60.71;97961.83;2220285;80;21619;-81
2021/04/29 04:46:00;;;;;;;20.97;16.42;;;;;;;9.88;60.10;97962.54;2220459;80;21622;-81
2021/04/29 04:49:02;;;;;;;20.70;16.17;;;;;;;10.19;59.76;97962.08;2220615;80;21289;-82
2021/04/29 04:52:05;;;;;;;26.30;17.75;;;;;;;10.34;57.93;97957.24;2220344;80;21596;-82
2021/04/29 04:55:07;;;;;;;22.45;16.10;;;;;;;10.11;57.96;97969.28;2220239;80;21162;-81
2021/04/29 04:58:09;;;;;;;19.67;15.43;;;;;;;9.87;57.95;97968.75;2220295;80;21170;-83
2021/04/29 05:01:11;;;;;;;22.73;16.85;;;;;;;9.66;58.17;97967.52;2220300;80;21183;-81
2021/04/29 05:04:12;;;;;;;23.73;17.23;;;;;;;9.44;58.24;97973.81;2220563;80;21144;-81
2021/04/29 05:07:14;;;;;;;23.60;17.23;;;;;;;9.25;58.68;97965.64;2220535;80;21191;-81
2021/04/29 05:10:16;;;;;;;23.27;17.80;;;;;;;9.06;58.45;97963.67;2220706;80;21111;-82
2021/04/29 05:13:18;;;;;;;21.00;16.50;;;;;;;8.87;58.86;97965.11;2220612;80;21151;-81
2021/04/29 05:16:19;;;;;;;23.67;17.40;;;;;;;8.73;58.97;97967.27;2220547;80;21103;-82
2021/04/29 05:19:21;;;;;;;22.48;16.90;;;;;;;8.59;59.18;97963.70;2220291;80;21587;-82
2021/04/29 05:22:23;;;;;;;23.47;17.67;;;;;;;8.55;59.25;97961.97;2220429;80;21721;-82
2021/04/29 05:25:26;;;;;;;21.50;16.17;;;;;;;8.53;59.41;97956.63;2220526;80;21143;-81
2021/04/29 05:28:28;;;;;;;25.70;17.90;;;;;;;8.59;59.33;97962.89;2220305;80;21162;-81
2021/04/29 05:31:30;;;;;;;20.92;16.37;;;;;;;8.79;59.46;97956.09;2220547;80;21163;-83
2021/04/29 05:34:32;;;;;;;28.57;18.15;;;;;;;9.01;59.01;97957.69;2220609;80;21285;-80
2021/04/29 05:37:35;;;;;;;21.73;16.02;;;;;;;9.25;58.85;97953.88;2220416;80;21183;-80
2021/04/29 05:40:37;;;;;;;20.52;16.05;;;;;;;9.47;58.17;97959.05;2220613;80;21170;-81
2021/04/29 05:43:38;;;;;;;23.18;16.90;;;;;;;9.68;58.28;97966.32;2220328;80;21194;-82
2021/04/29 05:46:43;;;;;;;27.30;20.08;;;;;;;9.91;57.88;97965.27;2220739;80;21214;-79
2021/04/29 05:49:44;;;;;;;32.25;18.00;;;;;;;10.09;57.52;97956.41;2221178;80;21306;-81
2021/04/29 05:52:46;;;;;;;20.25;15.08;;;;;;;10.44;56.97;97953.75;2221057;80;22289;-83
2021/04/29 05:55:48;;;;;;;22.30;15.38;;;;;;;10.81;56.18;97945.38;2220449;80;21599;-82
2021/04/29 05:58:49;;;;;;;30.37;18.17;;;;;;;10.95;55.57;97949.30;2220286;80;21154;-81
2021/04/29 06:01:51;;;;;;;23.05;16.55;;;;;;;11.33;55.37;97952.13;2220288;80;21614;-82
2021/04/29 06:04:53;;;;;;;18.67;14.55;;;;;;;11.76;55.26;97940.69;2220269;80;21147;-85
2021/04/29 06:07:55;;;;;;;19.75;15.35;;;;;;;12.01;54.07;97940.86;2220159;80;21138;-81
2021/04/29 06:11:00;;;;;;;20.45;15.83;;;;;;;12.09;53.66;97935.89;2220177;80;21725;-82
2021/04/29 06:14:02;;;;;;;18.55;15.28;;;;;;;12.14;53.54;97933.43;2220139;80;21275;-82
2021/04/29 06:17:04;;;;;;;18.98;14.98;;;;;;;12.16;52.63;97941.89;2220110;80;21634;-84
2021/04/29 06:20:07;;;;;;;19.35;14.28;;;;;;;12.27;52.20;97933.89;2220709;80;21187;-82
2021/04/29 06:23:09;;;;;;;19.42;15.60;;;;;;;12.45;51.83;97936.13;2221039;80;21166;-82
2021/04/29 06:26:10;;;;;;;20.40;14.90;;;;;;;12.63;51.54;97931.99;2220682;80;21381;-84
2021/04/29 06:29:13;;;;;;;24.75;15.23;;;;;;;12.69;51.13;97932.44;2220518;80;21159;-84
2021/04/29 06:32:14;;;;;;;21.20;15.65;;;;;;;12.70;51.22;97926.97;2220792;80;21328;-80
2021/04/29 06:35:17;;;;;;;18.00;14.18;;;;;;;12.84;51.31;97926.91;2220364;80;21551;-80
2021/04/29 06:38:20;;;;;;;19.30;14.90;;;;;;;12.97;51.08;97932.85;2220653;80;21274;-80
2021/04/29 06:41:21;;;;;;;21.87;15.58;;;;;;;13.00;51.01;97940.33;2220261;80;21122;-80
2021/04/29 06:44:23;;;;;;;17.75;14.95;;;;;;;12.97;51.32;97932.85;2220540;80;21578;-79
2021/04/29 06:47:32;;;;;;;22.32;17.00;;;;;;;12.98;51.45;97933.14;2220457;80;21167;-80
2021/04/29 06:50:31;;;;;;;18.12;15.95;;;;;;;13.05;51.58;97937.05;2220015;80;21294;-80
2021/04/29 06:53:34;;;;;;;20.10;16.30;;;;;;;13.18;51.76;97937.47;2220324;80;21618;-80
2021/04/29 06:56:36;;;;;;;19.20;17.12;;;;;;;13.27;51.92;97934.38;2220630;80;21139;-79
2021/04/29 06:59:37;;;;;;;21.23;16.40;;;;;;;13.28;51.63;97930.73;2220297;80;21147;-79
2021/04/29 07:02:40;;;;;;;20.80;16.25;;;;;;;13.27;51.94;97933.58;2220466;80;21277;-79
2021/04/29 07:05:42;;;;;;;21.40;16.75;;;;;;;13.30;52.30;97927.37;2220273;80;21552;-80
2021/04/29 07:08:43;;;;;;;25.90;17.12;;;;;;;13.38;52.20;97930.23;2220486;80;21332;-79
2021/04/29 07:11:46;;;;;;;21.55;16.15;;;;;;;13.47;52.05;97929.45;2220216;80;21146;-78
2021/04/29 07:14:48;;;;;;;22.42;15.03;;;;;;;13.51;51.92;97931.94;2220539;80;21154;-78
2021/04/29 07:17:49;;;;;;;20.27;15.58;;;;;;;13.53;51.51;97932.52;2220193;80;21131;-79
2021/04/29 07:20:54;;;;;;;20.90;14.35;;;;;;;13.49;51.22;97929.52;2220504;80;21151;-79
2021/04/29 07:23:57;;;;;;;25.65;15.95;;;;;;;13.53;50.96;97935.98;2220337;80;21115;-80
2021/04/29 07:26:59;;;;;;;16.42;13.43;;;;;;;13.54;50.71;97932.84;2220316;80;21119;-81
2021/04/29 07:30:01;;;;;;;22.17;13.62;;;;;;;13.53;50.84;97934.66;2220378;80;21167;-81
2021/04/29 07:33:03;;;;;;;27.58;14.63;;;;;;;13.54;50.92;97933.64;2220746;80;21321;-79
2021/04/29 07:36:04;;;;;;;17.10;13.78;;;;;;;13.69;50.54;97919.31;2220863;80;21166;-79
2021/04/29 07:39:07;;;;;;;14.78;11.30;;;;;;;13.89;49.94;97921.21;2222333;80;21178;-78
2021/04/29 07:42:08;;;;;;;19.55;12.45;;;;;;;14.10;49.79;97922.09;2220956;80;21317;-78
2021/04/29 07:45:10;;;;;;;14.98;11.83;;;;;;;14.30;49.05;97923.16;2221583;80;21171;-79
2021/04/29 07:48:12;;;;;;;16.32;11.25;;;;;;;14.65;48.88;97908.84;2220747;80;21321;-80
2021/04/29 07:51:14;;;;;;;13.45;10.45;;;;;;;14.65;48.88;97908.84;2220349;80;21602;-79
2021/04/29 07:54:16;;;;;;;16.32;11.03;;;;;;;14.96;48.47;97913.55;2219910;80;21270;-81
2021/04/29 07:57:19;;;;;;;15.08;11.05;;;;;;;15.21;47.86;97909.40;2219982;80;21146;-83
2021/04/29 08:00:21;;;;;;;12.15;10.85;;;;;;;15.44;47.36;97909.91;2219957;80;21298;-82
2021/04/29 08:03:24;;;;;;;11.75;10.05;;;;;;;15.65;46.84;97901.45;2220204;80;21182;-81
2021/04/29 08:06:26;;;;;;;15.28;10.85;;;;;;;15.95;46.43;97911.84;2219845;80;21682;-83
2021/04/29 08:09:29;;;;;;;11.05;9.88;;;;;;;16.14;45.86;97913.28;2220078;80;21131;-80
2021/04/29 08:12:31;;;;;;;12.53;10.75;;;;;;;16.31;45.03;97908.58;2219839;80;21281;-81
2021/04/29 08:15:33;;;;;;;16.12;9.63;;;;;;;16.63;44.32;97905.72;2219912;80;21329;-81
2021/04/29 08:18:35;;;;;;;12.93;11.08;;;;;;;17.09;44.62;97904.39;2220117;80;21147;-82
2021/04/29 08:21:37;;;;;;;10.03;9.03;;;;;;;17.55;43.31;97906.67;2220059;80;21116;-79
2021/04/29 08:24:39;;;;;;;10.03;8.50;;;;;;;17.94;42.82;97909.34;2219711;80;21309;-82
2021/04/29 08:27:41;;;;;;;9.48;8.38;;;;;;;18.19;39.83;97906.98;2219449;80;21186;-78
2021/04/29 08:30:43;;;;;;;12.15;8.18;;;;;;;18.39;39.33;97906.42;2219739;80;21286;-81
2021/04/29 08:33:46;;;;;;;7.83;6.67;;;;;;;18.56;38.85;97901.03;2219767;80;21293;-81
2021/04/29 08:36:48;;;;;;;7.87;7.08;;;;;;;18.67;38.85;97897.45;2219495;80;21273;-82
2021/04/29 08:39:50;;;;;;;8.25;7.45;;;;;;;18.87;39.19;97896.83;2219601;80;21341;-78
2021/04/29 08:42:52;;;;;;;8.65;7.12;;;;;;;19.10;39.13;97891.69;2219946;80;21131;-78
2021/04/29 08:45:54;;;;;;;7.42;6.05;;;;;;;19.29;37.90;97894.24;2219780;80;21737;-78
2021/04/29 08:48:56;;;;;;;10.88;7.30;;;;;;;19.30;35.85;97885.22;2219771;80;21155;-79
2021/04/29 08:51:58;;;;;;;8.60;5.50;;;;;;;19.18;36.21;97885.91;2220269;80;21281;-81
2021/04/29 08:54:59;;;;;;;7.97;5.70;;;;;;;19.23;35.64;97881.98;2219988;80;21591;-80
2021/04/29 08:58:01;;;;;;;9.83;6.60;;;;;;;19.34;35.99;97881.52;2220147;80;21143;-84
2021/04/29 09:01:03;;;;;;;8.05;6.65;;;;;;;19.48;35.64;97873.92;2219783;80;21728;-82
2021/04/29 09:04:05;;;;;;;6.95;6.17;;;;;;;19.67;36.13;97870.33;2220088;80;21150;-81
2021/04/29 09:07:08;;;;;;;8.10;7.03;;;;;;;19.83;35.59;97864.80;2220031;80;21285;-80
2021/04/29 09:10:09;;;;;;;6.42;5.70;;;;;;;19.86;35.57;97861.65;2219820;80;21155;-81
2021/04/29 09:13:11;;;;;;;5.87;5.35;;;;;;;19.87;34.73;97863.77;2219819;80;21276;-81
2021/04/29 09:16:14;;;;;;;6.62;5.95;;;;;;;19.80;34.05;97856.56;2219223;79;21728;-80
2021/04/29 09:19:16;;;;;;;7.45;5.95;;;;;;;19.80;34.31;97849.92;2199833;80;21158;-80
2021/04/29 09:22:18;;;;;;;6.60;5.97;;;;;;;19.83;34.33;97849.40;2198938;79;21632;-80
2021/04/29 09:25:20;;;;;;;10.20;6.80;;;;;;;19.85;34.32;97846.77;2194509;81;21239;-81
2021/04/29 09:28:21;;;;;;;8.98;6.92;;;;;;;19.94;34.79;97844.95;2197031;81;21339;-80
2021/04/29 09:31:23;;;;;;;9.13;7.22;;;;;;;20.00;35.21;97843.35;2195123;81;21377;-80
2021/04/29 09:34:25;;;;;;;7.95;7.15;;;;;;;19.95;34.72;97842.02;2197198;81;21343;-81
2021/04/29 09:37:27;;;;;;;10.28;8.50;;;;;;;19.96;35.46;97841.49;2194785;81;21179;-80
2021/04/29 09:40:30;;;;;;;10.80;9.70;;;;;;;19.76;35.17;97834.25;2197398;81;22202;-80
2021/04/29 09:43:32;;;;;;;8.75;7.70;;;;;;;19.62;34.89;97829.94;2194579;81;21152;-81
2021/04/29 09:46:34;;;;;;;9.23;7.87;;;;;;;19.44;35.53;97823.70;2197622;81;21295;-83
2021/04/29 09:49:38;;;;;;;9.13;7.40;;;;;;;19.39;35.80;97813.87;2217218;80;21182;-83
2021/04/29 09:52:39;;;;;;;12.03;7.33;;;;;;;19.30;35.70;97818.08;2242332;79;21593;-82
2021/04/29 09:55:41;;;;;;;8.45;6.75;;;;;;;19.28;35.95;97808.22;2242918;79;21726;-81
2021/04/29 09:58:46;;;;;;;9.03;5.50;;;;;;;19.31;36.02;97807.73;2242212;79;21290;-81
2021/04/29 10:01:47;;;;;;;7.22;5.22;;;;;;;19.38;35.47;97802.97;2243017;79;21274;-82
2021/04/29 10:04:49;;;;;;;5.40;4.72;;;;;;;19.47;35.34;97803.28;2243032;79;21144;-82
2021/04/29 10:07:51;;;;;;;7.25;4.12;;;;;;;19.47;32.31;97797.97;2242698;79;21785;-82
2021/04/29 10:10:52;;;;;;;7.53;3.90;;;;;;;19.28;31.76;97792.30;2242371;79;21634;-81
2021/04/29 10:13:54;;;;;;;5.65;4.33;;;;;;;19.14;32.28;97783.22;2242937;79;21340;-80
2021/04/29 10:16:56;;;;;;;6.97;4.70;;;;;;;19.23;32.98;97789.11;2242771;79;21136;-80
2021/04/29 10:19:58;;;;;;;5.33;4.83;;;;;;;19.18;32.26;97788.27;2243229;79;21127;-80
2021/04/29 10:23:00;;;;;;;4.92;4.42;;;;;;;19.12;32.41;97782.16;2243402;79;21151;-81
2021/04/29 10:26:02;;;;;;;7.17;5.28;;;;;;;19.04;32.90;97785.28;2242952;79;21286;-81
2021/04/29 10:29:03;;;;;;;6.50;5.08;;;;;;;19.06;33.42;97776.54;2243140;79;21294;-81
2021/04/29 10:32:05;;;;;;;5.95;5.35;;;;;;;19.08;33.49;97778.40;2243130;79;21718;-82
2021/04/29 10:35:08;;;;;;;6.20;5.60;;;;;;;19.08;33.74;97779.73;2243344;79;21100;-82
2021/04/29 10:38:09;;;;;;;5.53;5.03;;;;;;;19.11;34.34;97779.73;2243090;79;21735;-81
2021/04/29 10:41:11;;;;;;;8.18;6.30;;;;;;;19.06;34.63;97767.25;2243069;79;21116;-81
2021/04/29 10:44:13;;;;;;;6.75;5.35;;;;;;;19.20;35.17;97775.54;2243144;79;21762;-81
2021/04/29 10:47:16;;;;;;;6.12;5.17;;;;;;;19.45;35.81;97770.36;2241118;79;21293;-81
2021/04/29 10:50:17;;;;;;;7.78;5.25;;;;;;;19.64;35.38;97768.59;2203502;81;21273;-81
2021/04/29 10:53:19;;;;;;;5.92;4.35;;;;;;;19.85;36.08;97768.95;2198124;81;21266;-81
2021/04/29 10:56:21;;;;;;;6.58;5.97;;;;;;;20.15;36.30;97768.20;2197891;81;21705;-81
2021/04/29 10:59:23;;;;;;;5.62;4.50;;;;;;;20.40;36.12;97762.91;2197955;81;21265;-81
2021/04/29 11:02:26;;;;;;;7.12;5.05;;;;;;;20.54;36.04;97767.18;2198043;81;21595;-81
2021/04/29 11:05:27;;;;;;;10.80;6.80;;;;;;;20.69;35.69;97770.38;2198423;81;21155;-82
2021/04/29 11:08:30;;;;;;;6.03;5.50;;;;;;;20.72;34.82;97766.64;2198206;81;21135;-81
2021/04/29 11:11:33;;;;;;;7.70;5.72;;;;;;;20.74;35.52;97764.50;2198131;81;21269;-82
2021/04/29 11:14:35;;;;;;;5.87;5.28;;;;;;;20.90;35.81;97767.16;2198271;81;21575;-82
2021/04/29 11:17:37;;;;;;;10.05;6.22;;;;;;;21.01;35.43;97763.40;2198192;81;21135;-82
2021/04/29 11:20:39;;;;;;;7.10;5.90;;;;;;;21.04;35.33;97764.21;2198366;80;21697;-81
2021/04/29 11:23:41;;;;;;;6.30;5.78;;;;;;;21.07;35.22;97766.32;2198442;81;21120;-83
2021/04/29 11:26:43;;;;;;;7.72;6.17;;;;;;;21.11;35.42;97766.03;2198156;80;21317;-81
2021/04/29 11:29:44;;;;;;;6.58;5.65;;;;;;;21.12;35.07;97759.67;2199804;81;21296;-82
2021/04/29 11:32:46;;;;;;;6.00;5.22;;;;;;;21.08;34.71;97759.13;2199040;81;21178;-86
2021/04/29 11:35:48;;;;;;;5.05;4.58;;;;;;;21.17;35.02;97758.31;2200650;81;21326;-82
2021/04/29 11:38:50;;;;;;;7.58;4.45;;;;;;;21.37;35.32;97764.12;2198610;81;21143;-83
2021/04/29 11:41:52;;;;;;;9.60;7.78;;;;;;;21.53;35.24;97759.00;2198532;81;21293;-82
2021/04/29 11:44:53;;;;;;;14.63;8.05;;;;;;;21.70;34.60;97761.87;2198537;81;21151;-82
2021/04/29 11:47:55;;;;;;;8.80;5.22;;;;;;;21.77;34.44;97760.50;2202067;79;21701;-82
2021/04/29 11:50:58;;;;;;;8.43;3.92;;;;;;;21.89;34.39;97759.37;2214526;80;21273;-83
2021/04/29 11:54:00;;;;;;;6.60;4.33;;;;;;;21.96;34.41;97754.00;2214683;80;21571;-83
2021/04/29 11:57:02;;;;;;;7.90;3.77;;;;;;;21.99;34.24;97764.63;2214692;80;21166;-84
2021/04/29 12:00:04;;;;;;;4.30;3.77;;;;;;;22.08;34.20;97761.67;2214855;80;21313;-85
2021/04/29 12:03:07;;;;;;;6.10;4.33;;;;;;;22.14;33.84;97756.58;2214555;80;21156;-81
2021/04/29 12:06:08;;;;;;;5.90;4.20;;;;;;;22.17;33.42;97772.01;2214666;80;21148;-80
2021/04/29 12:09:10;;;;;;;6.10;3.87;;;;;;;22.21;33.43;97763.70;2214790;80;21191;-83
2021/04/29 12:12:12;;;;;;;6.12;4.45;;;;;;;22.24;33.07;97763.70;2215152;80;21163;-84
2021/04/29 12:15:14;;;;;;;4.67;4.28;;;;;;;22.25;32.90;97760.76;2214558;80;21777;-81
2021/04/29 12:18:15;;;;;;;8.78;5.45;;;;;;;22.29;32.98;97756.98;2214634;80;21738;-82
2021/04/29 12:21:17;;;;;;;7.17;6.45;;;;;;;22.32;32.79;97760.45;2214775;80;21179;-87
2021/04/29 12:24:19;;;;;;;8.80;6.20;;;;;;;22.37;32.74;97753.73;2214512;80;21132;-81
2021/04/29 12:27:22;;;;;;;6.90;5.08;;;;;;;22.46;32.90;97748.05;2214445;80;21269;-81
2021/04/29 12:30:23;;;;;;;7.05;4.42;;;;;;;22.53;32.97;97747.73;2214506;80;21592;-81
2021/04/29 12:33:25;;;;;;;5.75;4.40;;;;;;;22.61;33.01;97749.81;2214467;80;21595;-82
2021/04/29 12:36:27;;;;;;;7.05;4.78;;;;;;;22.74;32.98;97751.02;2214501;80;21164;-81
2021/04/29 12:39:29;;;;;;;7.83;5.12;;;;;;;22.84;33.14;97742.40;2214688;80;21143;-81
2021/04/29 12:42:31;;;;;;;8.83;5.92;;;;;;;22.95;33.32;97745.25;2214328;80;21183;-81
2021/04/29 12:45:33;;;;;;;7.25;5.67;;;;;;;23.00;33.14;97748.39;2214664;80;21591;-81
2021/04/29 12:48:35;;;;;;;5.15;4.42;;;;;;;22.98;33.32;97742.54;2206705;80;21305;-81
2021/04/29 12:51:36;;;;;;;6.08;4.85;;;;;;;23.07;33.49;97732.83;2206863;80;21583;-80
2021/04/29 12:54:38;;;;;;;5.42;4.55;;;;;;;23.16;33.66;97729.00;2195790;80;21286;-81
2021/04/29 12:57:39;;;;;;;6.33;5.62;;;;;;;23.27;33.96;97727.25;2213724;79;21250;-82
2021/04/29 13:00:41;;;;;;;10.43;5.95;;;;;;;23.32;34.14;97726.92;2225296;79;21120;-81
2021/04/29 13:03:43;;;;;;;18.77;6.72;;;;;;;23.34;34.61;97726.12;2215415;79;21634;-81
2021/04/29 13:06:44;;;;;;;8.20;6.15;;;;;;;23.33;34.52;97730.67;2215677;80;21150;-82
2021/04/29 13:09:49;;;;;;;6.90;5.75;;;;;;;23.20;34.74;97731.34;2198695;80;21802;-82
2021/04/29 13:12:49;;;;;;;8.58;6.87;;;;;;;23.14;34.85;97730.63;2215008;80;21068;-83
2021/04/29 13:15:51;;;;;;;8.78;6.03;;;;;;;23.07;34.97;97722.70;2231447;79;21648;-83
2021/04/29 13:18:52;;;;;;;8.40;6.78;;;;;;;23.08;35.28;97721.07;2227003;79;21179;-83
2021/04/29 13:21:54;;;;;;;10.30;7.72;;;;;;;23.08;35.24;97728.29;2218924;79;21294;-82
2021/04/29 13:24:55;;;;;;;9.60;7.42;;;;;;;22.99;35.41;97724.91;2232039;80;21100;-82
2021/04/29 13:27:57;;;;;;;8.23;7.03;;;;;;;22.86;35.41;97718.92;2198846;80;21766;-82
2021/04/29 13:30:58;;;;;;;9.13;7.60;;;;;;;22.67;35.57;97725.45;2215876;80;21124;-81
2021/04/29 13:34:03;;;;;;;11.00;8.38;;;;;;;22.56;35.91;97723.95;2235194;79;21286;-82
2021/04/29 13:37:04;;;;;;;11.93;7.95;;;;;;;22.43;36.12;97719.29;2210603;80;21278;-84
2021/04/29 13:40:06;;;;;;;14.65;9.20;;;;;;;22.32;36.47;97717.25;2207623;80;21309;-82
2021/04/29 13:43:07;;;;;;;12.25;7.33;;;;;;;22.29;36.97;97711.66;2236297;79;21277;-80
2021/04/29 13:46:10;;;;;;;10.25;6.62;;;;;;;22.32;37.25;97705.79;2235866;79;21741;-81
2021/04/29 13:49:12;;;;;;;8.88;6.58;;;;;;;22.42;37.10;97705.70;2221153;79;21873;-80
2021/04/29 13:52:14;;;;;;;15.65;7.08;;;;;;;22.49;37.06;97702.14;2223540;80;21159;-82
2021/04/29 13:55:16;;;;;;;11.93;7.45;;;;;;;22.50;37.06;97697.64;2219904;79;21273;-80
2021/04/29 13:58:17;;;;;;;10.05;6.70;;;;;;;22.46;37.06;97698.72;2198366;80;21291;-80
2021/04/29 14:01:20;;;;;;;9.23;6.85;;;;;;;22.41;37.16;97698.23;2229194;79;21297;-81
2021/04/29 14:04:22;;;;;;;8.65;7.20;;;;;;;22.37;37.29;97697.19;2223237;80;21317;-81
2021/04/29 14:07:23;;;;;;;9.35;7.00;;;;;;;22.38;37.38;97701.45;2221691;80;21722;-80